Time;durP1;ratioP1;P1;durP2;ratioP2;P2;SDS_P1;SDS_P2;PMS_P1;PMS_P2;Temp;Humidity;BMP_temperature;BMP_pressure;BME280_temperature;BME280_humidity;BME280_pressure;Samples;Min_cycle;Max_cycle;Signal;HPM_P1;HPM_P2
2023/02/27 00:00:20;;;;;;;4.78;1.95;;;;;;;;;;5005903;28;20041;-66
2023/02/27 00:02:48;;;;;;;5.22;2.10;;;;;;;;;;5006306;28;20067;-66
2023/02/27 00:05:15;;;;;;;5.15;1.83;;;;;;;;;;5005642;28;20270;-65
2023/02/27 00:07:42;;;;;;;7.40;2.40;;;;;;;;;;5007043;28;20099;-65
2023/02/27 00:10:09;;;;;;;3.90;1.70;;;;;;;;;;5007221;28;20168;-65
2023/02/27 00:12:37;;;;;;;5.70;2.15;;;;;;;;;;5007667;28;20042;-67
2023/02/27 00:15:05;;;;;;;7.50;3.20;;;;;;;;;;5006500;28;20038;-65
2023/02/27 00:17:32;;;;;;;5.95;3.03;;;;;;;;;;5013268;28;20044;-63
2023/02/27 00:19:58;;;;;;;6.60;2.60;;;;;;;;;;5033747;28;20044;-66
2023/02/27 00:22:25;;;;;;;4.90;2.58;;;;;;;;;;5032862;28;20065;-65
2023/02/27 00:24:51;;;;;;;4.57;2.28;;;;;;;;;;5033258;28;20076;-66
2023/02/27 00:27:18;;;;;;;6.88;2.70;;;;;;;;;;5033863;28;20041;-66
2023/02/27 00:29:45;;;;;;;4.57;2.15;;;;;;;;;;5032885;28;21439;-64
2023/02/27 00:32:11;;;;;;;6.57;2.47;;;;;;;;;;5033702;28;20037;-64
2023/02/27 00:34:38;;;;;;;4.50;2.40;;;;;;;;;;5032644;28;20550;-66
2023/02/27 00:37:05;;;;;;;6.13;2.60;;;;;;;;;;5033004;28;20120;-65
2023/02/27 00:39:31;;;;;;;5.97;2.47;;;;;;;;;;5031903;28;20051;-64
2023/02/27 00:41:58;;;;;;;4.20;1.85;;;;;;;;;;5032373;28;20505;-67
2023/02/27 00:44:25;;;;;;;5.50;2.60;;;;;;;;;;5032627;28;20118;-64
2023/02/27 00:46:51;;;;;;;5.75;2.47;;;;;;;;;;5032159;28;20037;-65
2023/02/27 00:49:19;;;;;;;4.95;2.47;;;;;;;;;;5017963;28;20041;-71
2023/02/27 00:51:46;;;;;;;6.75;2.80;;;;;;;;;;5035094;28;20040;-64
2023/02/27 00:54:13;;;;;;;4.60;2.30;;;;;;;;;;5033212;28;20207;-63
2023/02/27 00:56:40;;;;;;;6.40;2.83;;;;;;;;;;5030847;28;20071;-67
2023/02/27 00:59:06;;;;;;;5.50;2.60;;;;;;;;;;5031367;28;20044;-65
2023/02/27 01:01:33;;;;;;;4.97;2.10;;;;;;;;;;5032171;28;20083;-65
2023/02/27 01:04:00;;;;;;;5.38;2.05;;;;;;;;;;5032189;28;20052;-64
2023/02/27 01:06:26;;;;;;;3.50;1.58;;;;;;;;;;5032402;28;20680;-65
2023/02/27 01:08:54;;;;;;;4.78;2.08;;;;;;;;;;5031052;28;20072;-66
2023/02/27 01:11:21;;;;;;;5.63;2.08;;;;;;;;;;5031874;28;20102;-66
2023/02/27 01:13:48;;;;;;;4.55;1.73;;;;;;;;;;5032489;28;20061;-66
2023/02/27 01:16:14;;;;;;;5.10;2.28;;;;;;;;;;5033695;28;20045;-66
2023/02/27 01:18:41;;;;;;;1.02;0.60;;;;;;;;;;5032456;28;20516;-67
2023/02/27 01:21:08;;;;;;;6.78;2.38;;;;;;;;;;5032785;28;20132;-66
2023/02/27 01:23:34;;;;;;;2.95;1.33;;;;;;;;;;5031913;28;20130;-66
2023/02/27 01:26:01;;;;;;;5.50;2.60;;;;;;;;;;5032985;28;20040;-65
2023/02/27 01:28:28;;;;;;;4.40;1.55;;;;;;;;;;5032074;28;20077;-66
2023/02/27 01:30:54;;;;;;;7.18;2.22;;;;;;;;;;5032857;28;20120;-64
2023/02/27 01:33:21;;;;;;;3.67;1.55;;;;;;;;;;5033111;28;20492;-64
2023/02/27 01:35:47;;;;;;;6.90;1.80;;;;;;;;;;5033482;28;20159;-65
2023/02/27 01:38:14;;;;;;;3.05;1.40;;;;;;;;;;5033059;28;20042;-65
2023/02/27 01:40:42;;;;;;;5.38;2.10;;;;;;;;;;5031774;28;20457;-64
2023/02/27 01:43:14;;;;;;;3.95;1.90;;;;;;;;;;5033724;28;20044;-63
2023/02/27 01:45:41;;;;;;;2.88;1.50;;;;;;;;;;5031204;28;20045;-64
2023/02/27 01:48:22;;;;;;;7.10;1.95;;;;;;;;;;5032909;28;20068;-65
2023/02/27 01:50:53;;;;;;;3.08;1.02;;;;;;;;;;5033654;28;20515;-64
2023/02/27 01:53:24;;;;;;;3.80;1.70;;;;;;;;;;5032995;28;20056;-65
2023/02/27 01:55:53;;;;;;;4.57;1.70;;;;;;;;;;5034644;28;20048;-64
2023/02/27 01:58:19;;;;;;;3.58;1.70;;;;;;;;;;5034448;28;20045;-64
2023/02/27 02:00:47;;;;;;;5.63;1.80;;;;;;;;;;5033333;28;20151;-64
2023/02/27 02:03:39;;;;;;;4.80;1.98;;;;;;;;;;5031917;28;20055;-64
2023/02/27 02:06:06;;;;;;;5.82;2.13;;;;;;;;;;5012676;28;20453;-64
2023/02/27 02:08:35;;;;;;;6.07;2.15;;;;;;;;;;5010441;28;20049;-65
2023/02/27 02:11:02;;;;;;;5.50;2.00;;;;;;;;;;5025056;28;20110;-65
2023/02/27 02:13:29;;;;;;;4.28;2.00;;;;;;;;;;5030559;28;20179;-65
2023/02/27 02:16:06;;;;;;;7.20;2.40;;;;;;;;;;5034072;28;20100;-64
2023/02/27 02:18:38;;;;;;;5.25;1.92;;;;;;;;;;5032840;28;20688;-65
2023/02/27 02:21:05;;;;;;;4.50;1.80;;;;;;;;;;5033182;28;20047;-65
2023/02/27 02:23:42;;;;;;;7.15;2.63;;;;;;;;;;5030318;28;20064;-64
2023/02/27 02:26:18;;;;;;;4.38;1.92;;;;;;;;;;5031032;28;20037;-64
2023/02/27 02:28:53;;;;;;;4.25;1.88;;;;;;;;;;5030042;28;20128;-66
2023/02/27 02:31:29;;;;;;;5.65;2.10;;;;;;;;;;5031357;28;20040;-65
2023/02/27 02:34:02;;;;;;;5.00;1.95;;;;;;;;;;5031439;28;20094;-67
2023/02/27 02:36:28;;;;;;;4.72;2.28;;;;;;;;;;5022281;28;20065;-68
2023/02/27 02:39:01;;;;;;;5.05;2.03;;;;;;;;;;5012553;28;20073;-66
2023/02/27 02:41:28;;;;;;;5.32;2.22;;;;;;;;;;5019658;28;20103;-63
2023/02/27 02:44:07;;;;;;;4.68;2.10;;;;;;;;;;5031542;28;20493;-67
2023/02/27 02:46:40;;;;;;;4.47;1.75;;;;;;;;;;5032528;28;20160;-66
2023/02/27 02:49:14;;;;;;;6.43;2.40;;;;;;;;;;5032408;28;20052;-63
2023/02/27 02:51:47;;;;;;;7.47;2.15;;;;;;;;;;5033304;28;20529;-65
2023/02/27 02:54:31;;;;;;;4.50;1.95;;;;;;;;;;5039173;28;20140;-63
2023/02/27 02:57:10;;;;;;;6.28;2.03;;;;;;;;;;5014695;28;20068;-64
2023/02/27 02:59:44;;;;;;;4.18;1.60;;;;;;;;;;5016806;28;20140;-65
2023/02/27 03:02:14;;;;;;;4.57;1.70;;;;;;;;;;5014431;28;20099;-66
2023/02/27 03:04:43;;;;;;;6.50;1.63;;;;;;;;;;5013354;28;20072;-65
2023/02/27 03:07:09;;;;;;;3.53;1.40;;;;;;;;;;5014347;28;20159;-66
2023/02/27 03:10:03;;;;;;;3.63;1.35;;;;;;;;;;5012365;28;20045;-65
2023/02/27 03:12:30;;;;;;;;;;;;;;;;;;5013906;28;20045;-65
2023/02/27 03:15:22;;;;;;;4.55;1.70;;;;;;;;;;5014056;28;19931;-66
2023/02/27 03:18:04;;;;;;;4.95;1.55;;;;;;;;;;5031347;28;20079;-64
2023/02/27 03:20:33;;;;;;;3.40;1.42;;;;;;;;;;5033819;28;20477;-65
2023/02/27 03:23:10;;;;;;;3.50;1.50;;;;;;;;;;5034208;28;20140;-66
2023/02/27 03:25:37;;;;;;;5.53;1.60;;;;;;;;;;5033855;28;20052;-65
2023/02/27 03:28:05;;;;;;;3.15;1.10;;;;;;;;;;5034779;28;20039;-65
2023/02/27 03:30:38;;;;;;;3.83;1.50;;;;;;;;;;5032250;28;20044;-65
2023/02/27 03:33:12;;;;;;;3.65;1.48;;;;;;;;;;5035467;28;20063;-65
2023/02/27 03:35:54;;;;;;;5.85;1.20;;;;;;;;;;5033137;28;20038;-65
2023/02/27 03:38:26;;;;;;;3.08;1.17;;;;;;;;;;5034491;28;20140;-65
2023/02/27 03:40:59;;;;;;;4.63;1.55;;;;;;;;;;5033461;28;20033;-65
2023/02/27 03:43:44;;;;;;;2.97;1.38;;;;;;;;;;5035047;28;20072;-64
2023/02/27 03:46:13;;;;;;;4.63;1.73;;;;;;;;;;5034041;28;20036;-65
2023/02/27 03:48:43;;;;;;;4.18;1.65;;;;;;;;;;5033139;28;20090;-65
2023/02/27 03:51:14;;;;;;;6.47;1.70;;;;;;;;;;5034268;28;20041;-65
2023/02/27 03:53:40;;;;;;;2.80;1.00;;;;;;;;;;5033757;28;20120;-66
2023/02/27 03:56:09;;;;;;;3.85;1.52;;;;;;;;;;5032873;28;21975;-63
2023/02/27 03:58:36;;;;;;;4.22;1.40;;;;;;;;;;5033197;28;20561;-64
2023/02/27 04:01:03;;;;;;;4.97;1.63;;;;;;;;;;5033824;28;20052;-66
2023/02/27 04:03:32;;;;;;;4.28;1.65;;;;;;;;;;5032489;28;20993;-65
2023/02/27 04:07:21;;;;;;;7.43;1.70;;;;;;;;;;5033336;28;20584;-66
2023/02/27 04:09:07;;;;;;;3.70;1.60;;;;;;;;;;5032795;28;20629;-66
2023/02/27 04:11:35;;;;;;;5.00;1.50;;;;;;;;;;5031880;28;20036;-65
2023/02/27 04:14:11;;;;;;;3.85;1.63;;;;;;;;;;5032886;28;20056;-66
2023/02/27 04:16:40;;;;;;;4.10;1.50;;;;;;;;;;5032624;28;20047;-66
2023/02/27 04:19:07;;;;;;;6.30;1.70;;;;;;;;;;5033023;28;20048;-66
2023/02/27 04:21:43;;;;;;;3.92;1.50;;;;;;;;;;5033804;28;20064;-64
2023/02/27 04:24:35;;;;;;;3.83;1.40;;;;;;;;;;5033898;28;20524;-66
2023/02/27 04:27:14;;;;;;;4.15;1.83;;;;;;;;;;5033731;28;20131;-66
2023/02/27 04:29:47;;;;;;;4.60;2.13;;;;;;;;;;5033638;28;20466;-63
2023/02/27 04:32:13;;;;;;;2.97;1.40;;;;;;;;;;5033893;28;20116;-65
2023/02/27 04:34:50;;;;;;;4.43;1.88;;;;;;;;;;5032786;28;20041;-64
2023/02/27 04:37:22;;;;;;;5.30;1.85;;;;;;;;;;5033634;28;20048;-63
2023/02/27 04:39:54;;;;;;;6.63;2.20;;;;;;;;;;5032554;28;20052;-65
2023/02/27 04:42:23;;;;;;;4.03;1.63;;;;;;;;;;5034970;28;20068;-65
2023/02/27 04:44:51;;;;;;;3.75;1.42;;;;;;;;;;5033248;28;20056;-65
2023/02/27 04:47:19;;;;;;;7.47;2.88;;;;;;;;;;5034632;28;20102;-64
2023/02/27 04:49:51;;;;;;;6.07;2.28;;;;;;;;;;5032057;28;20061;-64
2023/02/27 04:52:21;;;;;;;3.75;1.70;;;;;;;;;;5033202;28;20043;-66
2023/02/27 04:54:47;;;;;;;5.97;2.10;;;;;;;;;;5032688;28;20041;-65
2023/02/27 04:57:18;;;;;;;8.77;3.75;;;;;;;;;;5032274;28;20039;-65
2023/02/27 04:59:47;;;;;;;7.03;2.13;;;;;;;;;;5030484;28;20055;-66
2023/02/27 05:02:24;;;;;;;6.45;1.85;;;;;;;;;;5033016;28;20063;-67
2023/02/27 05:04:56;;;;;;;5.88;2.35;;;;;;;;;;5019247;28;20052;-64
2023/02/27 05:07:26;;;;;;;6.22;2.00;;;;;;;;;;5012505;28;20581;-65
2023/02/27 05:09:56;;;;;;;6.90;2.33;;;;;;;;;;5012111;28;20508;-65
2023/02/27 05:12:24;;;;;;;3.97;1.60;;;;;;;;;;5031697;28;20282;-66
2023/02/27 05:14:57;;;;;;;6.85;2.05;;;;;;;;;;5032529;28;20394;-65
2023/02/27 05:17:33;;;;;;;6.07;2.13;;;;;;;;;;5031892;28;20901;-65
2023/02/27 05:20:00;;;;;;;5.32;1.73;;;;;;;;;;5030957;28;20055;-65
2023/02/27 05:22:53;;;;;;;7.43;2.17;;;;;;;;;;5029282;28;20047;-64
2023/02/27 05:25:26;;;;;;;4.30;1.63;;;;;;;;;;5032277;28;20076;-66
2023/02/27 05:28:05;;;;;;;6.18;2.05;;;;;;;;;;5031488;28;20405;-64
2023/02/27 05:30:31;;;;;;;4.78;2.03;;;;;;;;;;5031986;28;20044;-65
2023/02/27 05:33:16;;;;;;;7.40;2.72;;;;;;;;;;5032184;28;20154;-65
2023/02/27 05:35:43;;;;;;;8.90;3.20;;;;;;;;;;5030404;28;20045;-65
2023/02/27 05:38:14;;;;;;;7.63;3.33;;;;;;;;;;5031438;28;20180;-64
2023/02/27 05:40:43;;;;;;;8.13;3.47;;;;;;;;;;5029693;28;20147;-64
2023/02/27 05:43:18;;;;;;;10.23;4.05;;;;;;;;;;5032524;28;20476;-64
2023/02/27 05:45:46;;;;;;;10.55;3.83;;;;;;;;;;5031883;28;20045;-64
2023/02/27 05:48:20;;;;;;;13.07;3.53;;;;;;;;;;5031892;28;20405;-65
2023/02/27 05:50:49;;;;;;;8.93;3.65;;;;;;;;;;5011126;28;20049;-65
2023/02/27 05:53:17;;;;;;;15.05;3.60;;;;;;;;;;5013390;28;20596;-66
2023/02/27 05:55:47;;;;;;;7.97;3.38;;;;;;;;;;5022789;28;20045;-63
2023/02/27 05:58:23;;;;;;;14.80;4.20;;;;;;;;;;5031917;28;20040;-66
2023/02/27 06:00:59;;;;;;;9.57;3.55;;;;;;;;;;5018849;28;20079;-66
2023/02/27 06:03:27;;;;;;;11.60;3.20;;;;;;;;;;5019162;28;20100;-65
2023/02/27 06:05:54;;;;;;;6.93;3.10;;;;;;;;;;5033161;28;20505;-64
2023/02/27 06:08:21;;;;;;;7.43;2.70;;;;;;;;;;5030286;28;20068;-65
2023/02/27 06:10:51;;;;;;;6.35;2.40;;;;;;;;;;5032627;28;20203;-65
2023/02/27 06:13:18;;;;;;;5.90;2.65;;;;;;;;;;5018647;28;20060;-64
2023/02/27 06:15:45;;;;;;;7.68;2.95;;;;;;;;;;5031277;28;20518;-64
2023/02/27 06:18:13;;;;;;;3.85;1.77;;;;;;;;;;5032205;28;20073;-66
2023/02/27 06:20:41;;;;;;;9.15;2.65;;;;;;;;;;5030177;28;20040;-64
2023/02/27 06:23:08;;;;;;;4.40;1.77;;;;;;;;;;5031714;28;20052;-65
2023/02/27 06:25:35;;;;;;;10.80;2.58;;;;;;;;;;5030709;28;20079;-65
2023/02/27 06:28:01;;;;;;;4.80;2.10;;;;;;;;;;5031247;28;20203;-65
2023/02/27 06:30:28;;;;;;;5.95;2.30;;;;;;;;;;5032315;28;20029;-65
2023/02/27 06:32:55;;;;;;;6.55;2.45;;;;;;;;;;5032022;28;20056;-65
2023/02/27 06:35:22;;;;;;;9.48;2.50;;;;;;;;;;5013468;28;20048;-70
2023/02/27 06:37:48;;;;;;;5.38;2.00;;;;;;;;;;5036728;28;20079;-66
2023/02/27 06:40:15;;;;;;;6.20;2.33;;;;;;;;;;5034389;28;20868;-64
2023/02/27 06:42:42;;;;;;;6.18;2.42;;;;;;;;;;5032855;28;20047;-65
2023/02/27 06:45:13;;;;;;;7.13;2.17;;;;;;;;;;5013937;28;20395;-65
2023/02/27 06:47:40;;;;;;;5.85;2.65;;;;;;;;;;5035409;28;20045;-64
2023/02/27 06:50:10;;;;;;;5.40;2.22;;;;;;;;;;5035436;28;20514;-67
2023/02/27 06:52:37;;;;;;;13.60;2.75;;;;;;;;;;5035836;28;20372;-66
2023/02/27 06:55:04;;;;;;;9.98;2.20;;;;;;;;;;5035356;28;20859;-65
2023/02/27 06:57:31;;;;;;;4.47;2.15;;;;;;;;;;5020359;28;20041;-64
2023/02/27 06:59:57;;;;;;;6.10;2.38;;;;;;;;;;5034168;28;20036;-66
2023/02/27 07:02:24;;;;;;;4.40;2.05;;;;;;;;;;5033747;28;20069;-65
2023/02/27 07:04:51;;;;;;;4.85;2.03;;;;;;;;;;5034504;28;20057;-65
2023/02/27 07:07:18;;;;;;;4.40;2.20;;;;;;;;;;5035684;28;20036;-67
2023/02/27 07:09:45;;;;;;;7.20;2.67;;;;;;;;;;5033418;28;20333;-67
2023/02/27 07:12:11;;;;;;;10.13;2.60;;;;;;;;;;5033146;28;20495;-65
2023/02/27 07:14:38;;;;;;;5.78;2.17;;;;;;;;;;5033164;28;20086;-66
2023/02/27 07:17:05;;;;;;;5.45;2.55;;;;;;;;;;5035740;28;20115;-65
2023/02/27 07:19:34;;;;;;;5.35;2.67;;;;;;;;;;5034169;28;20033;-65
2023/02/27 07:22:01;;;;;;;4.32;1.95;;;;;;;;;;5035464;28;20561;-67
2023/02/27 07:24:27;;;;;;;5.70;2.05;;;;;;;;;;5035248;28;20406;-66
2023/02/27 07:26:54;;;;;;;4.55;1.83;;;;;;;;;;5035433;28;20115;-66
2023/02/27 07:29:21;;;;;;;6.63;2.40;;;;;;;;;;5035487;28;20655;-67
2023/02/27 07:31:48;;;;;;;4.88;2.00;;;;;;;;;;5036280;28;20041;-66
2023/02/27 07:34:14;;;;;;;9.27;3.10;;;;;;;;;;5021248;28;20067;-66
2023/02/27 07:36:42;;;;;;;7.50;2.80;;;;;;;;;;5034440;28;20044;-66
2023/02/27 07:39:09;;;;;;;5.82;1.70;;;;;;;;;;5034249;28;20037;-65
2023/02/27 07:41:36;;;;;;;4.03;2.00;;;;;;;;;;5033724;28;20073;-65
2023/02/27 07:44:03;;;;;;;8.70;2.55;;;;;;;;;;5034718;28;20049;-65
2023/02/27 07:46:29;;;;;;;8.73;3.05;;;;;;;;;;5035529;28;20720;-65
2023/02/27 07:48:56;;;;;;;4.18;1.75;;;;;;;;;;5034972;28;20475;-64
2023/02/27 07:51:22;;;;;;;9.70;2.65;;;;;;;;;;5035484;28;20041;-64
2023/02/27 07:53:49;;;;;;;5.28;2.25;;;;;;;;;;5036231;28;20064;-65
2023/02/27 07:56:18;;;;;;;4.60;2.28;;;;;;;;;;5035143;28;20049;-65
2023/02/27 07:58:45;;;;;;;4.28;1.60;;;;;;;;;;5034575;28;20040;-66
2023/02/27 08:01:12;;;;;;;8.82;1.70;;;;;;;;;;5034304;28;20052;-65
2023/02/27 08:03:38;;;;;;;4.38;2.25;;;;;;;;;;5033412;28;20056;-64
2023/02/27 08:06:05;;;;;;;5.53;2.08;;;;;;;;;;5034453;28;20084;-64
2023/02/27 08:08:32;;;;;;;3.50;1.77;;;;;;;;;;5033653;28;20052;-66
2023/02/27 08:10:58;;;;;;;9.60;5.00;;;;;;;;;;5033955;28;20083;-65
2023/02/27 08:13:25;;;;;;;3.83;1.65;;;;;;;;;;5035443;28;20033;-65
2023/02/27 08:15:53;;;;;;;3.47;1.67;;;;;;;;;;5034178;28;20495;-65
2023/02/27 08:18:20;;;;;;;3.75;2.00;;;;;;;;;;5034513;28;20044;-67
2023/02/27 08:20:46;;;;;;;4.78;2.00;;;;;;;;;;5039172;28;20045;-66
2023/02/27 08:23:13;;;;;;;1.65;0.85;;;;;;;;;;5030375;28;20231;-65
2023/02/27 08:25:40;;;;;;;2.47;1.15;;;;;;;;;;5034217;28;20065;-66
2023/02/27 08:28:07;;;;;;;3.33;1.73;;;;;;;;;;5033954;28;20040;-65
2023/02/27 08:30:33;;;;;;;6.95;2.80;;;;;;;;;;5032957;28;20604;-66
2023/02/27 08:33:00;;;;;;;6.13;2.47;;;;;;;;;;5034114;28;20053;-66
2023/02/27 08:35:27;;;;;;;4.93;2.70;;;;;;;;;;5033388;28;20048;-66
2023/02/27 08:37:53;;;;;;;5.30;2.17;;;;;;;;;;5034236;28;20037;-68
2023/02/27 08:40:20;;;;;;;9.30;3.50;;;;;;;;;;5019837;28;20029;-67
2023/02/27 08:42:47;;;;;;;4.72;2.28;;;;;;;;;;5032444;28;20040;-66
2023/02/27 08:45:13;;;;;;;8.38;2.55;;;;;;;;;;5034841;28;20037;-66
2023/02/27 08:47:41;;;;;;;7.20;3.42;;;;;;;;;;5033711;28;20045;-67
2023/02/27 08:50:08;;;;;;;6.00;3.00;;;;;;;;;;5032018;28;20082;-66
2023/02/27 08:52:37;;;;;;;2.25;1.10;;;;;;;;;;5033093;28;20075;-66
2023/02/27 08:55:04;;;;;;;5.25;2.67;;;;;;;;;;5013933;28;20043;-66
2023/02/27 08:57:31;;;;;;;4.47;2.42;;;;;;;;;;5031956;28;20045;-66
2023/02/27 08:59:57;;;;;;;6.55;3.47;;;;;;;;;;5032981;28;20033;-66
2023/02/27 09:02:25;;;;;;;4.72;2.50;;;;;;;;;;5032702;28;20118;-68
2023/02/27 09:04:55;;;;;;;6.22;2.65;;;;;;;;;;5033038;28;20052;-65
2023/02/27 09:07:21;;;;;;;9.25;2.42;;;;;;;;;;5032302;28;20147;-66
2023/02/27 09:09:51;;;;;;;5.53;2.70;;;;;;;;;;5033138;28;20086;-68
2023/02/27 09:12:18;;;;;;;5.00;2.03;;;;;;;;;;5032891;28;20051;-66
2023/02/27 09:14:44;;;;;;;3.50;1.65;;;;;;;;;;5019367;28;20406;-66
2023/02/27 09:17:11;;;;;;;1.73;0.82;;;;;;;;;;5013167;28;20134;-66
2023/02/27 09:19:37;;;;;;;7.00;2.60;;;;;;;;;;5021699;28;20041;-65
2023/02/27 09:22:04;;;;;;;3.67;1.95;;;;;;;;;;5032816;28;20136;-65
2023/02/27 09:24:31;;;;;;;4.32;1.98;;;;;;;;;;5032517;28;20045;-66
2023/02/27 09:26:57;;;;;;;6.18;2.85;;;;;;;;;;5031661;28;20033;-65
2023/02/27 09:29:26;;;;;;;4.43;2.38;;;;;;;;;;5031402;28;20049;-65
2023/02/27 09:31:53;;;;;;;3.22;1.48;;;;;;;;;;5022716;28;20055;-65
2023/02/27 09:34:19;;;;;;;6.60;2.58;;;;;;;;;;5031634;28;20139;-66
2023/02/27 09:36:46;;;;;;;4.22;2.22;;;;;;;;;;5031642;28;20048;-66
2023/02/27 09:39:12;;;;;;;4.60;2.38;;;;;;;;;;5032442;28;20041;-65
2023/02/27 09:41:52;;;;;;;4.65;2.20;;;;;;;;;;5030053;28;20116;-66
2023/02/27 09:44:35;;;;;;;5.13;2.45;;;;;;;;;;5032766;28;20118;-69
2023/02/27 09:47:04;;;;;;;3.63;1.85;;;;;;;;;;5032330;28;20048;-65
2023/02/27 09:49:32;;;;;;;5.22;2.60;;;;;;;;;;5011326;28;20689;-65
2023/02/27 09:52:00;;;;;;;5.38;2.40;;;;;;;;;;5033109;28;20048;-67
2023/02/27 09:54:30;;;;;;;3.80;2.15;;;;;;;;;;5031792;28;20051;-67
2023/02/27 09:57:00;;;;;;;5.75;2.20;;;;;;;;;;5031484;28;20076;-66
2023/02/27 09:59:36;;;;;;;5.97;2.58;;;;;;;;;;5030739;28;20037;-66
2023/02/27 10:02:18;;;;;;;4.40;2.05;;;;;;;;;;5032141;28;20052;-65
2023/02/27 10:05:14;;;;;;;3.95;2.08;;;;;;;;;;5030765;28;20125;-66
2023/02/27 10:07:41;;;;;;;4.68;2.08;;;;;;;;;;5013732;28;20124;-67
2023/02/27 10:10:26;;;;;;;2.78;1.17;;;;;;;;;;5011724;28;20505;-65
2023/02/27 10:12:52;;;;;;;5.05;2.40;;;;;;;;;;5017222;28;20061;-66
2023/02/27 10:15:25;;;;;;;3.92;1.90;;;;;;;;;;5013098;28;20061;-67
2023/02/27 10:18:04;;;;;;;5.32;2.53;;;;;;;;;;5005612;28;20041;-67
2023/02/27 10:20:33;;;;;;;9.00;2.95;;;;;;;;;;5022017;28;20040;-67
2023/02/27 10:23:01;;;;;;;4.22;2.08;;;;;;;;;;5013201;28;20191;-68
2023/02/27 10:25:29;;;;;;;5.65;2.35;;;;;;;;;;5011338;28;20037;-66
2023/02/27 10:27:58;;;;;;;7.57;2.90;;;;;;;;;;5012640;28;20044;-67
2023/02/27 10:30:28;;;;;;;5.95;3.10;;;;;;;;;;5018955;28;20037;-68
2023/02/27 10:32:59;;;;;;;15.45;3.25;;;;;;;;;;5015474;28;20107;-68
2023/02/27 10:35:31;;;;;;;7.10;3.55;;;;;;;;;;5015906;28;20038;-67
2023/02/27 10:38:00;;;;;;;8.95;3.13;;;;;;;;;;5013381;28;20652;-66
2023/02/27 10:40:27;;;;;;;5.28;2.72;;;;;;;;;;5013482;28;20195;-66
2023/02/27 10:42:54;;;;;;;7.10;3.20;;;;;;;;;;5011670;28;20030;-67
2023/02/27 10:45:21;;;;;;;6.50;3.80;;;;;;;;;;5013948;28;20046;-67
2023/02/27 10:47:47;;;;;;;6.28;3.60;;;;;;;;;;5020503;28;20038;-66
2023/02/27 10:50:22;;;;;;;7.90;3.65;;;;;;;;;;5013287;28;20045;-66
2023/02/27 10:52:54;;;;;;;4.22;2.55;;;;;;;;;;5014240;28;20589;-67
2023/02/27 10:55:39;;;;;;;6.63;2.50;;;;;;;;;;5013020;28;20044;-68
2023/02/27 10:58:05;;;;;;;6.70;3.42;;;;;;;;;;5014029;28;20091;-67
2023/02/27 11:00:38;;;;;;;5.50;2.92;;;;;;;;;;5021816;28;20041;-67
2023/02/27 11:03:04;;;;;;;8.05;3.40;;;;;;;;;;5015729;28;20056;-67
2023/02/27 11:05:33;;;;;;;7.82;3.88;;;;;;;;;;5015235;28;20087;-67
2023/02/27 11:08:19;;;;;;;6.13;3.10;;;;;;;;;;5033637;28;20140;-67
2023/02/27 11:10:57;;;;;;;6.45;2.97;;;;;;;;;;5032404;28;20068;-73
2023/02/27 11:13:25;;;;;;;6.75;3.15;;;;;;;;;;5030672;28;20455;-66
2023/02/27 11:16:04;;;;;;;6.32;3.70;;;;;;;;;;5031644;28;20033;-67
2023/02/27 11:18:31;;;;;;;6.70;3.63;;;;;;;;;;5029743;28;20067;-67
2023/02/27 11:21:19;;;;;;;11.48;3.47;;;;;;;;;;5034991;28;20449;-66
2023/02/27 11:23:51;;;;;;;6.30;3.28;;;;;;;;;;5033869;28;20057;-66
2023/02/27 11:26:24;;;;;;;5.30;3.17;;;;;;;;;;5021404;28;20107;-66
2023/02/27 11:29:04;;;;;;;6.25;3.50;;;;;;;;;;5021388;28;20056;-64
2023/02/27 11:31:31;;;;;;;6.40;3.47;;;;;;;;;;5014839;28;20049;-67
2023/02/27 11:33:59;;;;;;;6.53;3.50;;;;;;;;;;5028287;28;20037;-65
2023/02/27 11:36:59;;;;;;;6.45;3.42;;;;;;;;;;5035254;28;20468;-66
2023/02/27 11:39:28;;;;;;;6.25;3.40;;;;;;;;;;4989603;28;20049;-66
2023/02/27 11:41:56;;;;;;;9.20;3.42;;;;;;;;;;5033461;28;20075;-66
2023/02/27 11:44:25;;;;;;;7.55;3.22;;;;;;;;;;5034465;28;20570;-65
2023/02/27 11:46:53;;;;;;;8.82;3.42;;;;;;;;;;5034014;28;20139;-65
2023/02/27 11:49:31;;;;;;;7.70;3.60;;;;;;;;;;5033799;28;20037;-67
2023/02/27 11:52:12;;;;;;;5.65;3.10;;;;;;;;;;5033443;28;20045;-65
2023/02/27 11:54:56;;;;;;;7.22;3.97;;;;;;;;;;5035065;28;20725;-66
2023/02/27 11:57:27;;;;;;;6.60;2.95;;;;;;;;;;5034170;28;20770;-66
2023/02/27 12:00:07;;;;;;;7.53;3.70;;;;;;;;;;5033758;28;20704;-67
2023/02/27 12:02:54;;;;;;;5.68;3.28;;;;;;;;;;5033540;28;20602;-64
2023/02/27 12:05:39;;;;;;;8.13;3.30;;;;;;;;;;5035450;28;20040;-64
2023/02/27 12:08:18;;;;;;;5.65;2.05;;;;;;;;;;5032743;28;20037;-65
2023/02/27 12:10:47;;;;;;;9.88;3.08;;;;;;;;;;5033116;28;20037;-64
2023/02/27 12:13:23;;;;;;;6.90;2.58;;;;;;;;;;5034749;28;20128;-66
2023/02/27 12:15:56;;;;;;;5.38;3.03;;;;;;;;;;5011856;28;20046;-65
2023/02/27 12:18:31;;;;;;;8.68;3.97;;;;;;;;;;5021425;28;20128;-64
2023/02/27 12:21:11;;;;;;;5.57;2.70;;;;;;;;;;5034496;28;20040;-65
2023/02/27 12:23:58;;;;;;;11.27;3.25;;;;;;;;;;5019215;28;21713;-64
2023/02/27 12:26:39;;;;;;;5.90;3.10;;;;;;;;;;5034535;28;20044;-65
2023/02/27 12:29:21;;;;;;;6.05;3.10;;;;;;;;;;5035085;28;20091;-65
2023/02/27 12:31:51;;;;;;;6.75;3.05;;;;;;;;;;5033464;28;20121;-65
2023/02/27 12:34:21;;;;;;;7.82;3.92;;;;;;;;;;5036367;28;21798;-66
2023/02/27 12:36:47;;;;;;;5.75;3.20;;;;;;;;;;5034130;28;20675;-67
2023/02/27 12:39:21;;;;;;;7.55;3.55;;;;;;;;;;5036149;28;20045;-65
2023/02/27 12:41:47;;;;;;;;;;;;;;;;;;5035280;28;20611;-64
2023/02/27 12:44:32;;;;;;;7.72;2.80;;;;;;;;;;5036159;28;19925;-65
2023/02/27 12:47:10;;;;;;;5.25;2.60;;;;;;;;;;5021739;28;20137;-67
2023/02/27 12:49:50;;;;;;;6.72;3.33;;;;;;;;;;5016808;28;20045;-68
2023/02/27 12:52:39;;;;;;;7.32;3.00;;;;;;;;;;5016658;28;20856;-66
2023/02/27 12:55:21;;;;;;;4.97;2.85;;;;;;;;;;5032876;28;20052;-66
2023/02/27 12:57:47;;;;;;;9.98;3.47;;;;;;;;;;5019869;28;20631;-66
2023/02/27 13:00:22;;;;;;;5.72;3.22;;;;;;;;;;5016013;28;20049;-66
2023/02/27 13:02:56;;;;;;;7.50;3.60;;;;;;;;;;5019999;28;20390;-67
2023/02/27 13:05:23;;;;;;;7.10;4.00;;;;;;;;;;5029239;28;20080;-68
2023/02/27 13:08:07;;;;;;;7.88;4.40;;;;;;;;;;5033171;28;20371;-65
2023/02/27 13:10:42;;;;;;;8.20;3.50;;;;;;;;;;5031627;28;20055;-65
2023/02/27 13:13:17;;;;;;;6.40;3.58;;;;;;;;;;5032079;28;20134;-65
2023/02/27 13:15:49;;;;;;;6.70;3.60;;;;;;;;;;5031978;28;20041;-67
2023/02/27 13:18:22;;;;;;;6.60;2.92;;;;;;;;;;5033035;28;20053;-64
2023/02/27 13:20:56;;;;;;;6.70;3.93;;;;;;;;;;5017518;28;20541;-68
2023/02/27 13:23:32;;;;;;;7.20;3.88;;;;;;;;;;5016859;28;21125;-65
2023/02/27 13:26:00;;;;;;;9.35;4.50;;;;;;;;;;5032419;28;20044;-66
2023/02/27 13:28:28;;;;;;;12.93;4.22;;;;;;;;;;5031315;28;20186;-66
2023/02/27 13:31:06;;;;;;;8.75;4.07;;;;;;;;;;5030925;28;20453;-65
2023/02/27 13:33:48;;;;;;;9.45;4.22;;;;;;;;;;5032295;28;20041;-64
2023/02/27 13:36:20;;;;;;;8.25;4.47;;;;;;;;;;5032141;28;20120;-66
2023/02/27 13:38:53;;;;;;;8.48;4.25;;;;;;;;;;5018105;28;20140;-66
2023/02/27 13:41:20;;;;;;;10.05;4.32;;;;;;;;;;5011474;28;20110;-67
2023/02/27 13:43:50;;;;;;;9.07;4.30;;;;;;;;;;5018281;28;20136;-65
2023/02/27 13:46:22;;;;;;;9.70;4.68;;;;;;;;;;5033264;28;20509;-66
2023/02/27 13:48:52;;;;;;;6.10;3.30;;;;;;;;;;5031787;28;20030;-66
2023/02/27 13:51:37;;;;;;;9.00;4.40;;;;;;;;;;5031907;28;20183;-65
2023/02/27 13:54:13;;;;;;;9.68;4.63;;;;;;;;;;5013439;28;20681;-64
2023/02/27 13:56:42;;;;;;;11.55;4.72;;;;;;;;;;5030795;28;20034;-66
2023/02/27 13:59:29;;;;;;;8.52;4.20;;;;;;;;;;5030827;28;20033;-66
2023/02/27 14:01:59;;;;;;;9.85;5.13;;;;;;;;;;5015749;28;20042;-65
2023/02/27 14:04:31;;;;;;;10.07;5.22;;;;;;;;;;5008853;28;20057;-65
2023/02/27 14:07:06;;;;;;;12.95;5.60;;;;;;;;;;5024062;28;20037;-65
2023/02/27 14:09:37;;;;;;;10.95;5.93;;;;;;;;;;5042201;28;20051;-67
2023/02/27 14:12:05;;;;;;;12.20;5.72;;;;;;;;;;5028346;28;20079;-65
2023/02/27 14:14:34;;;;;;;9.95;5.50;;;;;;;;;;5030318;28;20072;-64
2023/02/27 14:17:02;;;;;;;11.57;5.00;;;;;;;;;;5030442;28;20028;-66
2023/02/27 14:19:29;;;;;;;12.63;5.40;;;;;;;;;;5032023;28;20128;-66
2023/02/27 14:21:57;;;;;;;13.02;5.10;;;;;;;;;;5029771;28;20048;-65
2023/02/27 14:24:32;;;;;;;8.48;4.53;;;;;;;;;;5030512;28;20049;-65
2023/02/27 14:26:59;;;;;;;10.30;4.95;;;;;;;;;;5029703;28;20095;-65
2023/02/27 14:29:32;;;;;;;9.32;5.18;;;;;;;;;;5030314;28;20041;-66
2023/02/27 14:32:05;;;;;;;7.68;4.57;;;;;;;;;;5029545;28;20040;-65
2023/02/27 14:34:32;;;;;;;9.05;5.18;;;;;;;;;;5030815;28;20076;-66
2023/02/27 14:37:00;;;;;;;7.68;4.00;;;;;;;;;;5029868;28;20080;-66
2023/02/27 14:39:32;;;;;;;10.55;4.90;;;;;;;;;;5028890;28;20091;-66
2023/02/27 14:42:16;;;;;;;10.15;5.35;;;;;;;;;;5027066;28;20048;-66
2023/02/27 14:44:45;;;;;;;10.60;4.80;;;;;;;;;;5028316;28;20049;-65
2023/02/27 14:47:18;;;;;;;9.02;4.93;;;;;;;;;;5030508;28;20493;-65
2023/02/27 14:49:46;;;;;;;16.55;6.05;;;;;;;;;;5029331;28;20137;-65
2023/02/27 14:52:17;;;;;;;10.30;4.93;;;;;;;;;;5030517;28;20035;-65
2023/02/27 14:54:44;;;;;;;8.60;4.93;;;;;;;;;;5030047;28;20041;-64
2023/02/27 14:57:16;;;;;;;15.38;5.15;;;;;;;;;;5034087;28;20037;-65
2023/02/27 14:59:44;;;;;;;13.55;5.38;;;;;;;;;;5033620;28;20060;-65
2023/02/27 15:02:23;;;;;;;7.70;4.75;;;;;;;;;;5022413;28;20210;-66
2023/02/27 15:04:52;;;;;;;11.18;7.00;;;;;;;;;;5019872;28;20920;-66